Time;durP1;ratioP1;P1;durP2;ratioP2;P2;SDS_P1;SDS_P2;PMS_P1;PMS_P2;Temp;Humidity;BMP_temperature;BMP_pressure;BME280_temperature;BME280_humidity;BME280_pressure;Samples;Min_cycle;Max_cycle;Signal;HPM_P1;HPM_P2
2021/01/21 00:01:55;;;;;;;3.90;3.70;;;;;;;15.76;36.80;99405.69;5006601;28;99367;-75
2021/01/21 00:04:23;;;;;;;4.10;3.70;;;;;;;15.74;37.22;99399.47;5006266;28;97231;-76
2021/01/21 00:06:50;;;;;;;3.80;3.50;;;;;;;15.73;37.26;99387.09;5006461;28;97949;-76
2021/01/21 00:09:20;;;;;;;4.63;3.92;;;;;;;15.72;37.36;99387.97;5000798;28;98168;-77
2021/01/21 00:11:47;;;;;;;3.83;3.53;;;;;;;15.71;37.19;99380.91;5009818;28;97864;-74
2021/01/21 00:14:15;;;;;;;3.85;3.55;;;;;;;15.68;37.31;99375.59;5009292;28;96821;-75
2021/01/21 00:16:42;;;;;;;3.83;3.60;;;;;;;15.69;37.31;99372.03;5007781;28;99866;-76
2021/01/21 00:19:10;;;;;;;3.70;3.50;;;;;;;15.66;37.02;99369.38;5014195;28;98937;-73
2021/01/21 00:21:37;;;;;;;4.82;4.25;;;;;;;15.67;37.22;99363.22;5025602;27;97174;-75
2021/01/21 00:24:06;;;;;;;3.78;3.58;;;;;;;15.67;37.09;99363.22;5009385;28;97626;-76
2021/01/21 00:26:34;;;;;;;3.72;3.53;;;;;;;15.65;37.49;99358.78;5006788;28;98093;-76
2021/01/21 00:29:02;;;;;;;4.13;3.83;;;;;;;15.65;37.17;99357.03;5006647;28;97737;-76
2021/01/21 00:31:29;;;;;;;3.65;3.40;;;;;;;15.65;37.16;99353.50;5005928;28;97520;-74
2021/01/21 00:33:57;;;;;;;4.35;4.05;;;;;;;15.64;37.35;99357.88;5008675;27;97710;-74
2021/01/21 00:36:24;;;;;;;4.45;3.78;;;;;;;15.66;37.25;99348.19;5001179;27;98140;-76
2021/01/21 00:38:51;;;;;;;3.95;3.72;;;;;;;15.66;37.24;99348.19;5003653;28;97811;-74
2021/01/21 00:41:19;;;;;;;3.58;3.40;;;;;;;15.64;37.07;99347.28;5009966;28;97107;-75
2021/01/21 00:43:48;;;;;;;3.83;3.63;;;;;;;15.62;37.23;99335.81;5005827;27;97402;-73
2021/01/21 00:46:16;;;;;;;4.35;3.97;;;;;;;15.60;37.37;99339.31;5005033;28;98970;-73
2021/01/21 00:48:45;;;;;;;4.30;3.53;;;;;;;15.59;37.12;99343.72;5009233;28;97970;-75
2021/01/21 00:51:13;;;;;;;3.78;3.55;;;;;;;15.57;37.41;99339.28;5005927;28;98680;-75
2021/01/21 00:53:58;;;;;;;4.93;4.60;;;;;;;15.55;37.07;99349.84;5016955;27;97305;-74
2021/01/21 00:56:44;;;;;;;3.83;3.58;;;;;;;15.52;37.54;99354.22;5007982;28;97944;-73
2021/01/21 00:59:12;;;;;;;4.07;3.78;;;;;;;15.50;37.31;99346.28;5004619;28;98310;-75
2021/01/21 01:01:40;;;;;;;4.70;3.72;;;;;;;15.50;37.37;99332.16;5009602;28;97145;-75
2021/01/21 01:04:11;;;;;;;3.78;3.47;;;;;;;15.52;37.38;99336.59;5005308;28;98627;-75
2021/01/21 01:06:41;;;;;;;3.80;3.60;;;;;;;15.49;37.37;99331.25;5019539;27;100223;-74
2021/01/21 01:09:09;;;;;;;4.10;3.80;;;;;;;15.48;37.15;99334.78;5004190;28;98998;-74
2021/01/21 01:11:37;;;;;;;4.28;3.88;;;;;;;15.45;37.19;99332.13;5003970;28;97376;-74
2021/01/21 01:14:05;;;;;;;3.38;3.17;;;;;;;15.41;37.29;99330.31;4998657;28;97175;-76
2021/01/21 01:16:34;;;;;;;3.60;3.30;;;;;;;15.39;37.39;99326.72;5020197;27;97904;-75
2021/01/21 01:19:05;;;;;;;3.80;3.50;;;;;;;15.38;37.60;99311.72;5005412;28;98813;-74
2021/01/21 01:21:34;;;;;;;4.07;3.33;;;;;;;15.40;37.34;99312.59;4997016;28;97526;-75
2021/01/21 01:24:02;;;;;;;3.85;3.55;;;;;;;15.37;37.28;99314.34;5007615;28;97751;-74
2021/01/21 01:26:31;;;;;;;3.60;3.30;;;;;;;15.36;37.41;99304.63;5000232;28;99287;-74
2021/01/21 01:29:08;;;;;;;3.42;3.17;;;;;;;15.35;37.40;99309.03;5005573;28;97848;-76
2021/01/21 01:31:36;;;;;;;3.92;3.72;;;;;;;15.35;37.05;99301.09;5003618;28;97289;-77
2021/01/21 01:34:06;;;;;;;3.72;3.42;;;;;;;15.33;37.29;99309.91;5010466;27;97350;-76
2021/01/21 01:36:53;;;;;;;3.42;3.17;;;;;;;15.34;37.45;99303.72;5006777;28;99410;-76
2021/01/21 01:39:47;;;;;;;4.00;3.70;;;;;;;15.29;37.44;99289.56;5029892;27;99006;-74
2021/01/21 01:42:27;;;;;;;3.92;3.50;;;;;;;15.26;37.27;99298.34;5007153;28;97847;-77
2021/01/21 01:44:55;;;;;;;4.00;3.67;;;;;;;15.24;37.46;99303.63;5005413;28;97400;-78
2021/01/21 01:47:24;;;;;;;3.38;3.17;;;;;;;15.23;37.03;99304.50;5006050;28;99008;-77
2021/01/21 01:49:54;;;;;;;3.55;3.25;;;;;;;15.21;37.25;99298.31;5007332;28;97577;-77
2021/01/21 01:52:22;;;;;;;3.60;3.40;;;;;;;15.23;37.17;99300.97;5017239;27;97301;-77
2021/01/21 01:55:11;;;;;;;3.08;2.88;;;;;;;15.23;36.89;99293.94;5007885;28;97935;-77
2021/01/21 01:57:58;;;;;;;3.85;3.60;;;;;;;15.16;37.20;99299.13;5001893;28;97989;-76
2021/01/21 02:00:38;;;;;;;3.85;3.55;;;;;;;15.16;36.99;99296.50;5004515;28;97882;-76
2021/01/21 02:03:07;;;;;;;3.55;3.35;;;;;;;15.15;37.35;99292.06;5008432;28;98063;-74
2021/01/21 02:05:42;;;;;;;3.45;3.20;;;;;;;15.17;37.11;99295.59;5001877;28;98141;-76
2021/01/21 02:08:09;;;;;;;3.50;3.35;;;;;;;15.14;36.92;99293.81;5006241;28;98241;-76
2021/01/21 02:10:37;;;;;;;6.28;3.60;;;;;;;15.13;37.34;99288.50;5006504;28;98932;-77
2021/01/21 02:13:33;;;;;;;3.50;3.20;;;;;;;15.08;36.56;99284.94;5008336;28;97386;-76
2021/01/21 02:16:16;;;;;;;3.90;3.38;;;;;;;15.08;36.58;99290.22;5004051;28;98200;-77
2021/01/21 02:18:49;;;;;;;3.50;3.30;;;;;;;15.10;37.15;99286.72;5009223;28;99076;-77
2021/01/21 02:21:44;;;;;;;3.78;3.58;;;;;;;15.10;36.45;99276.16;5002104;28;98762;-76
2021/01/21 02:24:39;;;;;;;3.53;3.22;;;;;;;15.10;36.36;99277.91;5013622;27;97732;-77
2021/01/21 02:27:10;;;;;;;3.50;3.20;;;;;;;15.11;37.41;99275.25;5016249;27;97548;-75
2021/01/21 02:29:41;;;;;;;3.65;3.38;;;;;;;15.17;37.01;99263.88;5021896;27;97993;-76
2021/01/21 02:32:31;;;;;;;3.60;3.40;;;;;;;15.15;36.78;99261.22;5014632;27;99236;-79
2021/01/21 02:35:15;;;;;;;5.20;3.30;;;;;;;15.12;36.99;99252.34;5007043;28;97286;-75
2021/01/21 02:37:52;;;;;;;3.15;2.97;;;;;;;15.11;36.84;99250.56;5020464;27;97990;-75
2021/01/21 02:40:22;;;;;;;3.40;3.10;;;;;;;15.11;36.83;99246.16;5019860;27;97868;-76
2021/01/21 02:43:01;;;;;;;3.42;3.20;;;;;;;15.10;37.41;99241.75;5003063;28;99471;-76
2021/01/21 02:45:29;;;;;;;3.60;3.33;;;;;;;15.12;36.76;99236.50;5008502;27;97606;-76
2021/01/21 02:48:02;;;;;;;3.45;3.25;;;;;;;15.07;36.86;99240.84;5030288;27;97201;-75
2021/01/21 02:50:45;;;;;;;3.20;3.10;;;;;;;15.08;37.09;99234.69;5007728;28;97953;-76
2021/01/21 02:53:13;;;;;;;3.60;3.30;;;;;;;15.06;36.93;99223.19;5022118;27;98227;-75
2021/01/21 02:55:46;;;;;;;3.55;3.35;;;;;;;15.01;36.89;99220.53;5005325;28;97488;-76
2021/01/21 02:58:17;;;;;;;3.22;3.05;;;;;;;15.00;36.58;99225.75;5011102;28;97932;-76
2021/01/21 03:00:45;;;;;;;3.45;3.15;;;;;;;15.00;36.83;99217.81;5007115;28;98868;-75
2021/01/21 03:03:17;;;;;;;3.67;3.45;;;;;;;15.02;37.14;99202.88;5018785;27;98154;-75
2021/01/21 03:05:51;;;;;;;3.55;3.25;;;;;;;15.02;36.66;99201.13;5009643;28;97776;-76
2021/01/21 03:08:18;;;;;;;3.47;3.28;;;;;;;15.01;36.86;99196.72;5009336;28;98033;-74
2021/01/21 03:10:46;;;;;;;3.40;3.13;;;;;;;15.02;36.73;99195.84;5013112;28;99398;-77
2021/01/21 03:13:18;;;;;;;4.05;2.78;;;;;;;15.06;36.88;99192.34;5008475;28;98173;-75
2021/01/21 03:15:50;;;;;;;3.40;3.15;;;;;;;15.06;36.80;99181.78;5017153;27;96858;-78
2021/01/21 03:18:20;;;;;;;3.42;3.10;;;;;;;15.05;36.48;99173.84;5029318;27;97681;-76
2021/01/21 03:20:49;;;;;;;2.95;2.75;;;;;;;15.01;36.51;99161.44;5022093;27;97938;-74
2021/01/21 03:23:27;;;;;;;3.45;3.25;;;;;;;15.01;37.03;99161.44;5005654;28;97945;-75
2021/01/21 03:26:02;;;;;;;4.93;3.25;;;;;;;15.03;36.65;99154.41;5005315;28;97218;-79
2021/01/21 03:28:31;;;;;;;3.60;3.40;;;;;;;15.02;36.58;99150.88;5007909;28;97796;-77
2021/01/21 03:30:59;;;;;;;3.28;3.08;;;;;;;15.03;36.79;99130.63;5007056;28;99101;-76
2021/01/21 03:33:27;;;;;;;3.42;3.22;;;;;;;15.00;36.82;99123.53;5023041;27;99068;-76
2021/01/21 03:35:58;;;;;;;3.70;3.50;;;;;;;14.97;36.59;99122.63;5002769;28;97831;-76
2021/01/21 03:38:27;;;;;;;3.92;3.63;;;;;;;14.93;36.63;99115.53;5009600;27;98125;-77
2021/01/21 03:41:15;;;;;;;3.83;3.25;;;;;;;14.89;37.03;99109.31;4974371;28;100099;-75
2021/01/21 03:43:54;;;;;;;3.42;3.20;;;;;;;14.89;36.65;99108.47;5008679;28;97838;-74
2021/01/21 03:46:25;;;;;;;3.60;3.33;;;;;;;14.88;36.81;99107.56;5012587;28;97255;-73
2021/01/21 03:48:54;;;;;;;3.72;3.00;;;;;;;14.85;36.87;99101.38;5023459;27;97325;-75
2021/01/21 03:51:41;;;;;;;3.90;3.53;;;;;;;14.89;36.97;99098.75;5005219;28;98393;-76
2021/01/21 03:54:29;;;;;;;3.22;3.10;;;;;;;14.89;37.09;99095.25;5011139;28;101071;-77
2021/01/21 03:56:58;;;;;;;4.00;3.60;;;;;;;14.90;36.83;99086.44;5001550;28;97888;-73
2021/01/21 03:59:28;;;;;;;3.30;3.10;;;;;;;14.91;36.86;99080.25;5015078;27;97676;-75
2021/01/21 04:01:56;;;;;;;3.75;3.45;;;;;;;14.92;36.60;99079.41;5006447;28;98025;-74
2021/01/21 04:04:24;;;;;;;3.60;3.25;;;;;;;14.95;36.94;99069.72;5005289;28;98050;-75
2021/01/21 04:06:53;;;;;;;3.28;3.13;;;;;;;14.91;37.03;99074.97;5008164;28;97553;-75
2021/01/21 04:09:28;;;;;;;3.35;3.05;;;;;;;14.90;37.09;99063.53;5005263;28;97356;-74
2021/01/21 04:12:16;;;;;;;3.22;2.90;;;;;;;14.91;36.80;99059.09;5009417;28;98458;-75
2021/01/21 04:14:44;;;;;;;3.70;3.40;;;;;;;14.92;36.66;99059.13;5006492;28;98953;-75
2021/01/21 04:17:13;;;;;;;3.65;3.45;;;;;;;14.91;36.61;99057.34;5006093;28;97958;-74
2021/01/21 04:19:59;;;;;;;3.15;2.85;;;;;;;14.92;36.84;99045.91;5004693;28;97661;-77
2021/01/21 04:22:28;;;;;;;3.20;3.05;;;;;;;14.89;37.05;99040.59;5006102;28;99141;-77
2021/01/21 04:24:56;;;;;;;3.67;3.42;;;;;;;14.92;36.73;99045.03;5004178;28;99428;-75
2021/01/21 04:27:35;;;;;;;3.75;3.45;;;;;;;14.92;36.52;99045.03;5004807;28;97171;-77
2021/01/21 04:30:14;;;;;;;3.22;3.10;;;;;;;14.97;36.81;99044.19;5008984;28;97238;-74
2021/01/21 04:33:00;;;;;;;38.85;19.38;;;;;;;15.00;36.76;99032.72;5008088;28;98059;-76
2021/01/21 04:35:48;;;;;;;11.98;8.35;;;;;;;15.01;36.77;99034.53;5015049;27;98155;-76
2021/01/21 04:38:16;;;;;;;4.00;3.70;;;;;;;15.01;36.59;99029.22;4997921;28;96857;-75
2021/01/21 04:40:58;;;;;;;3.50;3.30;;;;;;;15.03;36.45;99012.50;5013724;27;97968;-75
2021/01/21 04:43:46;;;;;;;3.63;3.38;;;;;;;15.00;36.64;99024.78;5005827;28;98182;-76
2021/01/21 04:46:22;;;;;;;3.97;3.53;;;;;;;15.02;36.38;99036.28;5010563;28;98004;-75
2021/01/21 04:48:52;;;;;;;3.83;3.63;;;;;;;15.01;36.50;99035.41;5012680;27;97394;-75
2021/01/21 04:51:21;;;;;;;3.33;3.03;;;;;;;15.02;36.16;99025.69;5024305;27;97954;-75
2021/01/21 04:54:06;;;;;;;88.25;32.80;;;;;;;15.05;36.33;99020.47;5003003;28;97947;-75
2021/01/21 04:56:51;;;;;;;5.63;5.05;;;;;;;15.03;36.56;99001.03;5028104;27;99362;-74
2021/01/21 04:59:38;;;;;;;3.22;3.08;;;;;;;15.01;36.13;98992.22;5010200;28;97688;-76
2021/01/21 05:02:09;;;;;;;3.88;3.58;;;;;;;15.03;36.25;98995.75;5011708;27;97634;-74
2021/01/21 05:04:45;;;;;;;3.65;3.20;;;;;;;15.03;36.42;98982.53;5006671;28;97926;-74
2021/01/21 05:07:20;;;;;;;3.63;3.50;;;;;;;15.06;36.20;98995.75;5005931;28;98093;-75
2021/01/21 05:09:49;;;;;;;8.30;6.57;;;;;;;15.07;36.14;99002.84;5010845;28;97154;-76
2021/01/21 05:12:20;;;;;;;5.55;4.90;;;;;;;15.03;36.50;99012.50;5009637;28;96789;-75
2021/01/21 05:15:14;;;;;;;5.43;4.93;;;;;;;15.07;36.58;98998.41;5005255;28;98589;-76
2021/01/21 05:18:07;;;;;;;10.20;7.32;;;;;;;15.02;36.34;98986.03;5001585;28;99556;-77
2021/01/21 05:21:01;;;;;;;4.15;3.85;;;;;;;14.98;36.56;98993.06;4982653;28;97545;-74
2021/01/21 05:24:01;;;;;;;3.60;3.35;;;;;;;14.96;36.50;98978.09;4976516;28;97475;-76
2021/01/21 05:27:04;;;;;;;3.95;3.40;;;;;;;14.94;36.26;98978.03;5020381;27;99355;-75
2021/01/21 05:29:49;;;;;;;3.42;3.22;;;;;;;14.91;36.71;98990.38;5019102;27;99182;-76
2021/01/21 05:32:18;;;;;;;6.28;3.95;;;;;;;14.92;36.21;98982.47;5020515;27;97265;-77
2021/01/21 05:34:57;;;;;;;142.52;59.00;;;;;;;14.92;36.17;98973.66;5008142;28;97766;-75
2021/01/21 05:37:38;;;;;;;13.93;9.82;;;;;;;14.92;36.04;98971.00;5020299;27;98343;-73
2021/01/21 05:40:30;;;;;;;3.97;3.67;;;;;;;14.91;36.28;98975.41;5008007;28;98190;-72
2021/01/21 05:43:10;;;;;;;4.38;4.07;;;;;;;14.91;36.34;98958.63;5019780;27;97507;-73
2021/01/21 05:45:55;;;;;;;4.40;3.65;;;;;;;14.92;36.20;98965.72;5021803;27;96920;-74
2021/01/21 05:48:24;;;;;;;3.72;3.42;;;;;;;14.89;36.27;98956.00;4998722;28;97026;-74
2021/01/21 05:50:51;;;;;;;3.53;3.33;;;;;;;14.91;36.53;98956.88;4999632;28;101800;-73
2021/01/21 05:53:19;;;;;;;3.47;3.28;;;;;;;14.94;36.59;98953.38;5003588;28;97321;-72
2021/01/21 05:55:56;;;;;;;3.55;3.25;;;;;;;14.90;36.42;98956.88;5001764;28;97862;-73
2021/01/21 05:58:53;;;;;;;3.53;3.33;;;;;;;14.88;36.47;98942.78;5007303;28;97551;-74
2021/01/21 06:01:22;;;;;;;3.45;3.25;;;;;;;14.89;36.47;98941.91;5002971;28;97970;-76
2021/01/21 06:03:52;;;;;;;3.80;3.58;;;;;;;14.91;36.37;98937.50;5020885;27;97992;-73
2021/01/21 06:06:26;;;;;;;6.72;3.25;;;;;;;14.88;36.25;98945.41;5002082;28;97381;-71
2021/01/21 06:08:56;;;;;;;3.92;3.63;;;;;;;14.92;36.47;98932.25;5013266;27;99432;-74
2021/01/21 06:11:23;;;;;;;3.78;3.58;;;;;;;14.89;36.38;98921.63;5003203;28;98449;-73
2021/01/21 06:13:54;;;;;;;3.85;3.45;;;;;;;14.87;36.15;98922.50;5006988;28;96786;-75
2021/01/21 06:16:22;;;;;;;3.47;3.22;;;;;;;14.86;36.07;98921.63;5004334;28;96981;-75
2021/01/21 06:18:49;;;;;;;3.50;3.30;;;;;;;14.81;36.21;98930.38;5018032;27;98205;-74
2021/01/21 06:21:26;;;;;;;3.88;3.55;;;;;;;14.82;36.44;98919.81;5001252;28;98004;-74
2021/01/21 06:24:03;;;;;;;3.80;3.47;;;;;;;14.80;36.39;98934.78;5008259;28;97846;-74
2021/01/21 06:26:42;;;;;;;3.42;3.22;;;;;;;14.85;36.06;98948.91;5017131;27;97311;-74
2021/01/21 06:29:14;;;;;;;3.33;3.15;;;;;;;14.90;35.85;98938.38;5008560;27;99792;-73
2021/01/21 06:31:42;;;;;;;3.60;3.40;;;;;;;14.90;36.32;98952.50;5009606;28;98969;-75
2021/01/21 06:34:12;;;;;;;3.60;3.35;;;;;;;14.91;36.12;98953.34;5007156;28;97413;-76
2021/01/21 06:36:42;;;;;;;5.65;3.38;;;;;;;14.94;35.98;98953.38;5003448;28;96824;-75
2021/01/21 06:39:15;;;;;;;3.63;3.42;;;;;;;14.96;35.90;98952.50;5007877;28;98363;-75
2021/01/21 06:41:45;;;;;;;3.13;2.92;;;;;;;14.98;35.84;98953.41;5003962;28;100016;-73
2021/01/21 06:44:16;;;;;;;3.25;3.08;;;;;;;14.98;36.11;98958.69;4999432;28;98187;-76
2021/01/21 06:46:44;;;;;;;3.80;3.60;;;;;;;15.00;36.13;98959.59;5002473;28;97653;-75
2021/01/21 06:49:14;;;;;;;5.53;3.50;;;;;;;15.02;36.28;98980.75;5000281;28;98342;-77
2021/01/21 06:51:44;;;;;;;4.00;3.70;;;;;;;15.00;35.83;98963.97;5009032;28;100360;-75
2021/01/21 06:54:12;;;;;;;3.38;3.17;;;;;;;14.99;36.22;98978.09;5005449;28;97224;-75
2021/01/21 06:56:58;;;;;;;3.30;3.10;;;;;;;15.01;36.21;98979.00;5008122;28;97141;-74
2021/01/21 06:59:52;;;;;;;3.30;3.10;;;;;;;14.98;35.52;98977.19;5001634;28;97937;-74
2021/01/21 07:02:46;;;;;;;3.95;3.47;;;;;;;14.99;35.48;98973.69;4999915;28;98676;-75
2021/01/21 07:05:16;;;;;;;3.70;3.50;;;;;;;15.01;35.82;98965.78;5023450;27;98873;-75
2021/01/21 07:08:04;;;;;;;3.90;3.60;;;;;;;15.01;35.45;98977.25;5008349;28;97618;-74
2021/01/21 07:10:35;;;;;;;3.10;2.90;;;;;;;15.05;36.05;98979.00;5004252;28;99564;-76
2021/01/21 07:13:05;;;;;;;3.90;3.58;;;;;;;15.05;35.93;98965.78;5003924;28;99003;-75
2021/01/21 07:15:43;;;;;;;3.88;3.65;;;;;;;15.03;35.73;98961.38;5003209;28;97750;-74
2021/01/21 07:18:14;;;;;;;3.17;2.90;;;;;;;15.01;35.93;98949.91;5004404;28;97294;-75
2021/01/21 07:21:07;;;;;;;4.05;3.50;;;;;;;15.03;35.22;98940.22;5005362;28;98254;-73
2021/01/21 07:23:37;;;;;;;3.38;3.17;;;;;;;14.99;36.02;98936.69;5006851;28;98614;-76
2021/01/21 07:26:27;;;;;;;3.45;3.17;;;;;;;15.01;35.36;98931.41;5006640;28;97546;-77
2021/01/21 07:29:11;;;;;;;3.30;3.10;;;;;;;14.98;35.71;98937.53;5004523;28;97876;-74
2021/01/21 07:32:10;;;;;;;3.30;3.10;;;;;;;15.02;35.09;98918.19;5008183;27;98103;-73
2021/01/21 07:34:43;;;;;;;3.17;2.97;;;;;;;15.01;36.00;98921.72;5007994;28;99106;-73
2021/01/21 07:37:12;;;;;;;3.47;3.17;;;;;;;15.04;36.24;98932.28;5007527;28;97600;-76
2021/01/21 07:39:54;;;;;;;6.68;3.30;;;;;;;15.03;35.39;98937.59;5002303;28;97759;-76
2021/01/21 07:42:51;;;;;;;3.05;2.90;;;;;;;15.02;35.50;98951.66;5006001;28;100644;-74
2021/01/21 07:45:27;;;;;;;3.70;3.50;;;;;;;15.04;36.06;98945.53;5006644;28;97804;-73
2021/01/21 07:47:57;;;;;;;3.50;3.25;;;;;;;15.07;36.32;98936.72;5001490;28;97673;-77
2021/01/21 07:50:30;;;;;;;3.83;3.30;;;;;;;15.07;35.73;98928.81;5000343;28;100104;-75
2021/01/21 07:52:58;;;;;;;5.47;3.38;;;;;;;15.11;36.03;98943.78;4998493;28;98412;-75
2021/01/21 07:55:26;;;;;;;3.47;3.28;;;;;;;15.14;36.06;98928.81;5001282;28;97980;-74
2021/01/21 07:57:54;;;;;;;3.70;3.40;;;;;;;15.16;36.13;98935.00;5001535;28;97785;-79
2021/01/21 08:00:23;;;;;;;3.50;3.03;;;;;;;15.19;35.84;98921.81;4997202;28;97946;-78
2021/01/21 08:02:51;;;;;;;3.40;3.20;;;;;;;15.19;35.73;98928.84;4999972;28;97803;-74
2021/01/21 08:05:21;;;;;;;3.30;3.20;;;;;;;15.20;35.87;98917.38;5000878;28;99336;-75
2021/01/21 08:07:49;;;;;;;3.35;3.15;;;;;;;15.19;35.76;98913.88;4999430;28;98552;-76
2021/01/21 08:10:19;;;;;;;4.10;3.80;;;;;;;15.18;36.13;98900.66;5000070;28;98005;-72
2021/01/21 08:12:51;;;;;;;3.42;3.30;;;;;;;15.19;35.94;98897.13;5002848;28;97802;-75
2021/01/21 08:15:21;;;;;;;3.30;3.00;;;;;;;15.18;35.87;98893.56;5003608;28;97536;-74
2021/01/21 08:17:49;;;;;;;2.83;2.72;;;;;;;15.17;36.25;98893.56;4999400;28;97414;-77
2021/01/21 08:20:18;;;;;;;3.25;3.05;;;;;;;15.19;36.22;98886.53;5002114;27;97239;-75
2021/01/21 08:22:55;;;;;;;3.20;3.00;;;;;;;15.25;35.57;98891.84;5002907;28;97920;-75
2021/01/21 08:25:23;;;;;;;4.35;3.25;;;;;;;15.27;36.18;98878.63;5001651;28;97856;-73
2021/01/21 08:27:52;;;;;;;3.38;3.03;;;;;;;15.30;35.66;98868.94;5004737;28;97432;-76
2021/01/21 08:30:23;;;;;;;3.28;3.08;;;;;;;15.34;35.84;98869.84;5005562;28;97879;-77
2021/01/21 08:32:57;;;;;;;3.15;3.05;;;;;;;15.39;35.84;98865.44;5002474;28;100212;-73
2021/01/21 08:35:27;;;;;;;4.18;2.90;;;;;;;15.43;35.68;98860.22;4998292;28;98986;-71
2021/01/21 08:37:59;;;;;;;2.45;2.40;;;;;;;15.47;35.66;98864.63;5001987;28;98291;-73
2021/01/21 08:40:27;;;;;;;2.70;2.60;;;;;;;15.58;35.63;98868.19;4996916;27;97794;-73
2021/01/21 08:42:55;;;;;;;2.92;2.72;;;;;;;15.65;35.43;98863.78;4999401;28;99691;-74
2021/01/21 08:45:27;;;;;;;2.65;2.55;;;;;;;15.79;35.31;98875.28;5000814;28;98193;-75
2021/01/21 08:47:55;;;;;;;3.10;2.95;;;;;;;15.85;35.42;98870.91;5002057;28;98008;-76
2021/01/21 08:50:23;;;;;;;3.05;2.85;;;;;;;16.00;35.05;98884.13;5002885;28;98340;-75
2021/01/21 08:52:59;;;;;;;2.60;2.50;;;;;;;16.08;34.74;98887.69;5003209;27;98423;-75
2021/01/21 08:55:38;;;;;;;2.92;2.72;;;;;;;16.17;33.93;98900.03;5012864;27;97905;-75
2021/01/21 08:58:06;;;;;;;2.72;2.63;;;;;;;16.29;34.75;98915.06;4990643;28;97653;-76
2021/01/21 09:00:35;;;;;;;2.55;2.45;;;;;;;16.36;34.81;98909.78;4994648;28;98024;-75
2021/01/21 09:03:03;;;;;;;2.90;2.70;;;;;;;16.41;34.77;98926.56;4993979;28;98293;-74
2021/01/21 09:05:31;;;;;;;2.80;2.70;;;;;;;16.47;34.70;98916.00;4990872;28;98271;-76
2021/01/21 09:08:04;;;;;;;2.78;2.63;;;;;;;16.45;33.79;98912.44;4991307;28;99308;-79
2021/01/21 09:10:39;;;;;;;2.85;2.65;;;;;;;16.54;34.26;98922.16;4997595;28;97394;-73
2021/01/21 09:13:08;;;;;;;3.00;2.80;;;;;;;16.64;34.76;98926.59;5000441;28;99237;-76
2021/01/21 09:15:54;;;;;;;2.85;2.70;;;;;;;16.69;33.44;98940.72;4991032;28;98626;-76
2021/01/21 09:18:24;;;;;;;2.78;2.65;;;;;;;16.73;34.88;98935.41;4994564;28;98155;-73
2021/01/21 09:21:10;;;;;;;3.10;2.80;;;;;;;16.79;34.04;98950.44;5000486;28;97650;-74
2021/01/21 09:23:39;;;;;;;2.90;2.80;;;;;;;16.83;34.72;98957.50;4999344;28;99984;-75
2021/01/21 09:26:14;;;;;;;3.20;2.53;;;;;;;16.86;34.47;98961.03;4996398;27;101410;-73
2021/01/21 09:28:54;;;;;;;2.88;2.63;;;;;;;16.93;34.33;98964.56;4988262;28;97559;-74
2021/01/21 09:31:22;;;;;;;2.70;2.60;;;;;;;16.98;34.72;98976.94;4986931;28;97812;-76
2021/01/21 09:33:51;;;;;;;4.28;2.72;;;;;;;17.03;34.61;98982.22;4991741;28;99051;-73
2021/01/21 09:36:19;;;;;;;2.70;2.50;;;;;;;16.98;34.53;98976.94;5008904;27;98841;-77
2021/01/21 09:38:47;;;;;;;2.80;2.70;;;;;;;17.03;34.57;98977.81;5012959;27;97643;-75
2021/01/21 09:41:15;;;;;;;2.60;2.50;;;;;;;17.05;34.47;98980.47;4994861;28;97574;-75
2021/01/21 09:43:42;;;;;;;2.92;2.83;;;;;;;17.08;34.46;98975.13;5000487;28;97879;-73
2021/01/21 09:46:21;;;;;;;2.58;2.40;;;;;;;17.05;34.50;98975.16;5001423;28;97876;-74
2021/01/21 09:48:48;;;;;;;2.78;2.58;;;;;;;17.21;34.38;98982.19;4998975;28;98583;-75
2021/01/21 09:51:16;;;;;;;2.28;2.17;;;;;;;17.24;34.44;98977.75;5005871;28;97828;-74
2021/01/21 09:53:43;;;;;;;2.25;2.10;;;;;;;17.33;34.25;98982.19;5001988;28;99204;-74
2021/01/21 09:56:12;;;;;;;3.75;2.63;;;;;;;17.43;34.35;98975.94;5003649;28;97841;-73
2021/01/21 09:58:39;;;;;;;2.60;2.40;;;;;;;17.49;34.29;98998.97;4997078;28;97427;-73
2021/01/21 10:01:06;;;;;;;3.05;2.78;;;;;;;17.53;34.31;98985.69;5002323;28;97512;-74
2021/01/21 10:03:49;;;;;;;2.20;2.10;;;;;;;17.56;34.41;98985.69;5010260;27;98102;-74
2021/01/21 10:06:16;;;;;;;2.83;2.20;;;;;;;17.64;34.38;99001.59;5002422;28;97987;-77
2021/01/21 10:08:44;;;;;;;2.38;2.22;;;;;;;17.70;34.29;98999.78;5002268;28;97927;-75
2021/01/21 10:11:12;;;;;;;2.90;2.70;;;;;;;17.77;34.31;98993.56;5003925;28;97719;-75
2021/01/21 10:13:39;;;;;;;2.63;2.53;;;;;;;17.81;34.42;99002.41;4997070;28;98446;-74
2021/01/21 10:16:07;;;;;;;2.00;2.00;;;;;;;17.83;34.40;99009.47;4997803;28;99195;-73
2021/01/21 10:18:35;;;;;;;4.10;2.33;;;;;;;17.92;34.29;99028.03;4994770;28;98545;-74
2021/01/21 10:21:02;;;;;;;2.67;2.58;;;;;;;17.99;34.26;99008.50;5005496;28;97345;-78
2021/01/21 10:23:30;;;;;;;2.92;2.58;;;;;;;18.02;34.41;99018.25;4999595;28;98030;-74
2021/01/21 10:25:57;;;;;;;2.28;2.20;;;;;;;18.04;34.36;99022.69;5000737;28;98986;-79
2021/01/21 10:28:26;;;;;;;2.25;2.15;;;;;;;18.09;34.40;99039.47;4997813;28;97503;-74
2021/01/21 10:30:53;;;;;;;2.30;2.20;;;;;;;18.14;34.41;99047.41;5003199;28;97610;-73
2021/01/21 10:33:20;;;;;;;2.88;2.67;;;;;;;18.10;34.35;99043.03;5000169;28;97897;-73
2021/01/21 10:35:48;;;;;;;2.70;2.55;;;;;;;18.16;34.50;99058.91;5002391;28;98027;-74
2021/01/21 10:38:15;;;;;;;2.53;2.42;;;;;;;18.11;34.60;99074.00;5001271;28;97398;-76
2021/01/21 10:40:43;;;;;;;4.22;2.50;;;;;;;18.08;34.71;99084.66;4998110;28;97320;-74
2021/01/21 10:43:10;;;;;;;2.28;2.17;;;;;;;17.98;34.92;99107.72;4999373;28;98116;-77
2021/01/21 10:45:39;;;;;;;2.30;2.10;;;;;;;17.90;35.14;99104.19;4997446;28;99001;-76
2021/01/21 10:48:07;;;;;;;2.05;1.95;;;;;;;17.84;35.47;99113.97;5000805;28;97214;-75
2021/01/21 10:50:35;;;;;;;1.90;1.90;;;;;;;17.77;35.58;99115.72;5002107;27;97917;-74
2021/01/21 10:53:04;;;;;;;2.35;2.20;;;;;;;17.69;35.84;99116.66;5017379;27;99108;-76
2021/01/21 10:55:31;;;;;;;2.13;2.13;;;;;;;17.64;35.96;99127.28;5000845;28;98566;-74
2021/01/21 10:57:59;;;;;;;2.25;2.17;;;;;;;17.61;36.17;99129.94;5002373;28;97863;-75
2021/01/21 11:00:26;;;;;;;2.30;2.20;;;;;;;17.53;36.31;99129.06;5000633;28;96998;-76
2021/01/21 11:02:54;;;;;;;2.05;1.92;;;;;;;17.47;36.42;99146.72;5002204;28;99272;-75
2021/01/21 11:05:22;;;;;;;1.98;1.88;;;;;;;17.36;36.44;99132.56;5001306;28;98008;-75
2021/01/21 11:07:50;;;;;;;1.80;1.70;;;;;;;17.26;36.66;99144.09;5006237;27;97739;-74
2021/01/21 11:10:17;;;;;;;1.75;1.75;;;;;;;17.22;36.80;99132.59;5004801;28;96981;-73
2021/01/21 11:12:48;;;;;;;1.80;1.70;;;;;;;17.13;36.94;99137.91;5007289;28;98116;-72
2021/01/21 11:15:16;;;;;;;1.75;1.75;;;;;;;17.05;36.93;99160.88;5003388;28;97970;-73
2021/01/21 11:17:44;;;;;;;1.60;1.60;;;;;;;16.92;37.06;99140.50;5002492;28;98109;-73
2021/01/21 11:20:14;;;;;;;1.77;1.77;;;;;;;16.81;37.22;99166.13;5011245;28;97204;-76
2021/01/21 11:22:41;;;;;;;1.52;1.52;;;;;;;16.65;37.40;99162.56;5005254;28;97785;-76
2021/01/21 11:25:10;;;;;;;1.50;1.50;;;;;;;16.59;37.24;99148.38;5006053;28;99015;-75
2021/01/21 11:27:57;;;;;;;1.70;1.70;;;;;;;16.47;37.45;99154.53;5002919;28;97713;-75
2021/01/21 11:30:26;;;;;;;2.10;2.00;;;;;;;16.35;37.43;99156.22;5003667;28;97320;-75
2021/01/21 11:32:53;;;;;;;1.50;1.50;;;;;;;16.24;37.64;99165.00;5004503;28;98203;-77
2021/01/21 11:35:22;;;;;;;1.67;1.67;;;;;;;16.11;37.55;99165.81;5003719;28;98427;-76
2021/01/21 11:37:49;;;;;;;1.88;1.88;;;;;;;16.03;37.56;99166.66;5003353;28;97637;-77
2021/01/21 11:40:17;;;;;;;1.60;1.60;;;;;;;15.95;37.85;99158.69;5005017;27;97537;-76
2021/01/21 11:42:45;;;;;;;1.85;1.85;;;;;;;15.87;37.61;99159.50;5020043;27;98151;-74
2021/01/21 11:45:13;;;;;;;1.90;1.90;;;;;;;15.85;37.47;99159.50;5002012;28;98375;-76
2021/01/21 11:47:40;;;;;;;1.80;1.80;;;;;;;15.81;37.74;99155.06;5003945;28;97646;-75
2021/01/21 11:50:15;;;;;;;1.80;1.80;;;;;;;15.79;37.55;99164.75;5008116;28;98870;-74
2021/01/21 11:52:44;;;;;;;1.58;1.58;;;;;;;15.80;37.74;99163.88;5003741;28;99336;-73
2021/01/21 11:55:13;;;;;;;2.47;2.42;;;;;;;15.77;37.60;99168.25;5003949;27;98489;-74
2021/01/21 11:57:42;;;;;;;1.45;1.45;;;;;;;15.71;37.91;99163.81;5005447;28;97137;-73
2021/01/21 12:00:11;;;;;;;2.97;1.77;;;;;;;15.68;37.71;99165.56;4998736;28;98440;-74